createdAt,value
2023-07-25T00:02:18.538Z,9.25
2023-07-25T00:04:46.976Z,6.13
2023-07-25T00:07:15.356Z,5.93
2023-07-25T00:09:43.875Z,6.10
2023-07-25T00:12:12.366Z,3.63
2023-07-25T00:14:40.715Z,3.67
2023-07-25T00:17:09.104Z,4.03
2023-07-25T00:19:38.984Z,15.25
2023-07-25T00:22:07.435Z,10.20
2023-07-25T00:24:35.900Z,7.32
2023-07-25T00:27:04.315Z,5.50
2023-07-25T00:29:32.728Z,2.13
2023-07-25T00:32:01.148Z,8.90
2023-07-25T00:34:29.572Z,4.80
2023-07-25T00:36:59.575Z,7.85
2023-07-25T00:39:27.979Z,8.00
2023-07-25T00:41:56.408Z,5.50
2023-07-25T00:44:24.808Z,6.53
2023-07-25T00:46:53.239Z,8.68
2023-07-25T00:49:21.741Z,3.67
2023-07-25T00:51:50.211Z,4.45
2023-07-25T00:54:20.098Z,6.53
2023-07-25T00:56:48.545Z,5.93
2023-07-25T00:59:17.288Z,5.28
2023-07-25T01:01:45.893Z,5.43
2023-07-25T01:04:14.385Z,6.70
2023-07-25T01:06:43.127Z,4.10
2023-07-25T01:09:11.564Z,3.95
2023-07-25T01:11:41.336Z,10.55
2023-07-25T01:14:09.790Z,7.07
2023-07-25T01:16:38.452Z,4.97
2023-07-25T01:19:07.043Z,6.50
2023-07-25T01:21:35.634Z,6.10
2023-07-25T01:24:05.710Z,4.70
2023-07-25T01:26:34.140Z,5.85
2023-07-25T01:29:02.575Z,6.72
2023-07-25T01:31:31.192Z,9.35
2023-07-25T01:33:59.759Z,5.97
2023-07-25T01:36:28.167Z,4.80
2023-07-25T01:38:56.540Z,7.80
2023-07-25T01:41:26.338Z,4.53
2023-07-25T01:43:54.726Z,6.63
2023-07-25T01:46:23.132Z,6.00
2023-07-25T01:48:51.547Z,9.30
2023-07-25T01:51:20.364Z,8.23
2023-07-25T01:53:48.779Z,6.05
2023-07-25T01:56:17.159Z,8.30
2023-07-25T01:58:46.884Z,8.13
2023-07-25T02:01:15.362Z,6.15
2023-07-25T02:03:43.892Z,10.30
2023-07-25T02:06:12.275Z,8.75
2023-07-25T02:08:40.698Z,7.15
2023-07-25T02:11:09.813Z,7.90
2023-07-25T02:13:38.212Z,9.07
2023-07-25T02:16:08.150Z,8.48
2023-07-25T02:18:36.567Z,4.95
2023-07-25T02:21:04.979Z,3.20
2023-07-25T02:23:33.401Z,4.05
2023-07-25T02:26:01.800Z,6.75
2023-07-25T02:28:30.170Z,8.38
2023-07-25T02:30:58.807Z,7.85
2023-07-25T02:33:28.646Z,5.70
2023-07-25T02:35:57.080Z,9.07
2023-07-25T02:38:26.820Z,4.45
2023-07-25T02:40:55.260Z,5.53
2023-07-25T02:43:24.229Z,7.93
2023-07-25T02:45:52.885Z,9.02
2023-07-25T02:48:21.657Z,6.28
2023-07-25T02:50:51.416Z,5.13
2023-07-25T02:53:19.826Z,7.63
2023-07-25T02:55:48.266Z,8.82
2023-07-25T02:58:16.645Z,8.35
2023-07-25T03:00:45.374Z,7.35
2023-07-25T03:03:13.865Z,7.72
2023-07-25T03:05:42.289Z,10.48
2023-07-25T03:08:12.044Z,10.23
2023-07-25T03:10:40.593Z,6.25
2023-07-25T03:13:08.986Z,8.57
2023-07-25T03:15:37.660Z,4.57
2023-07-25T03:18:06.926Z,4.63
2023-07-25T03:20:35.379Z,7.10
2023-07-25T03:23:03.743Z,6.90
2023-07-25T03:25:33.571Z,8.57
2023-07-25T03:28:01.940Z,4.70
2023-07-25T03:30:30.484Z,5.03
2023-07-25T03:32:58.982Z,13.20
2023-07-25T03:35:27.458Z,10.15
2023-07-25T03:37:55.853Z,8.85
2023-07-25T03:40:24.576Z,5.65
2023-07-25T03:42:54.356Z,9.95
2023-07-25T03:45:22.761Z,8.30
2023-07-25T03:47:51.194Z,5.53
2023-07-25T03:50:19.649Z,9.27
2023-07-25T03:52:48.101Z,10.27
2023-07-25T03:55:16.596Z,8.05
2023-07-25T03:57:45.349Z,6.53
2023-07-25T04:00:16.054Z,4.97
2023-07-25T04:02:44.553Z,5.50
2023-07-25T04:05:13.076Z,3.58
2023-07-25T04:07:41.558Z,4.38
2023-07-25T04:10:10.239Z,5.25
2023-07-25T04:12:38.652Z,4.72
2023-07-25T04:15:07.513Z,5.88
2023-07-25T04:17:37.327Z,5.82
2023-07-25T04:20:06.141Z,4.13
2023-07-25T04:22:34.520Z,6.82
2023-07-25T04:25:02.928Z,11.27
2023-07-25T04:27:33.020Z,6.93
2023-07-25T04:30:01.422Z,5.25
2023-07-25T04:32:29.853Z,8.32
2023-07-25T04:34:59.880Z,7.97
2023-07-25T04:37:28.378Z,8.50
2023-07-25T04:39:56.750Z,7.88
2023-07-25T04:42:25.148Z,10.10
2023-07-25T04:44:53.858Z,10.40
2023-07-25T04:47:22.876Z,7.22
2023-07-25T04:49:51.378Z,6.82
2023-07-25T04:52:21.160Z,8.20
2023-07-25T04:54:50.339Z,6.78
2023-07-25T04:57:18.735Z,8.02
2023-07-25T04:59:47.125Z,9.20
2023-07-25T05:02:15.635Z,9.20
2023-07-25T05:04:44.222Z,5.72
2023-07-25T05:07:12.680Z,7.70
2023-07-25T05:09:43.694Z,9.30
2023-07-25T05:12:14.471Z,7.03
2023-07-25T05:14:43.116Z,6.38
2023-07-25T05:17:11.554Z,11.70
2023-07-25T05:19:39.996Z,7.93
2023-07-25T05:22:08.414Z,11.75
2023-07-25T05:24:36.905Z,7.28
2023-07-25T05:27:07.078Z,18.48
2023-07-25T05:29:35.674Z,9.02
2023-07-25T05:32:04.080Z,11.63
2023-07-25T05:34:32.515Z,5.28
2023-07-25T05:37:01.368Z,8.98
2023-07-25T05:39:29.814Z,10.32
2023-07-25T05:41:58.257Z,11.88
2023-07-25T05:44:28.002Z,8.15
2023-07-25T05:46:56.362Z,9.20
2023-07-25T05:49:24.825Z,6.70
2023-07-25T05:51:55.131Z,5.72
2023-07-25T05:54:23.539Z,11.20
2023-07-25T05:56:51.972Z,9.88
2023-07-25T05:59:21.953Z,11.25
2023-07-25T06:01:51.783Z,7.00
2023-07-25T06:04:20.222Z,7.95
2023-07-25T06:06:48.629Z,7.10
2023-07-25T06:09:17.049Z,14.13
2023-07-25T06:11:45.425Z,9.85
2023-07-25T06:14:13.798Z,8.95
2023-07-25T06:16:42.799Z,5.80
2023-07-25T06:19:12.761Z,6.50
2023-07-25T06:21:41.328Z,5.30
2023-07-25T06:24:09.814Z,4.85
2023-07-25T06:26:39.223Z,6.60
2023-07-25T06:29:07.674Z,6.85
2023-07-25T06:31:36.666Z,6.53
2023-07-25T06:34:05.103Z,8.32
2023-07-25T06:36:34.935Z,8.05
2023-07-25T06:39:03.929Z,8.95
2023-07-25T06:41:32.520Z,4.30
2023-07-25T06:44:01.110Z,9.38
2023-07-25T06:46:29.534Z,12.35
2023-07-25T06:48:58.016Z,10.13
2023-07-25T06:51:26.410Z,10.20
2023-07-25T06:53:56.152Z,8.43
2023-07-25T06:56:24.571Z,5.80
2023-07-25T06:58:53.015Z,10.93
2023-07-25T07:01:21.975Z,8.52
2023-07-25T07:03:50.429Z,10.38
2023-07-25T07:06:18.811Z,7.55
2023-07-25T07:08:47.256Z,9.95
2023-07-25T07:11:17.109Z,11.70
2023-07-25T07:13:45.566Z,6.22
2023-07-25T07:16:13.989Z,7.50
2023-07-25T07:18:42.412Z,8.30
2023-07-25T07:21:10.841Z,10.82
2023-07-25T07:23:39.221Z,13.18
2023-07-25T07:26:07.638Z,5.70
2023-07-25T07:28:37.400Z,6.97
2023-07-25T07:31:06.428Z,7.75
2023-07-25T07:33:36.558Z,7.90
2023-07-25T07:36:05.087Z,9.70
2023-07-25T07:38:33.507Z,8.30
2023-07-25T07:41:01.929Z,9.43
2023-07-25T07:43:30.593Z,9.18
2023-07-25T07:46:00.844Z,7.22
2023-07-25T07:48:29.300Z,10.93
2023-07-25T07:50:57.688Z,5.03
2023-07-25T07:53:26.108Z,5.90
2023-07-25T07:55:54.508Z,12.23
2023-07-25T07:58:22.990Z,10.73
2023-07-25T08:00:51.401Z,9.43
2023-07-25T08:03:21.167Z,7.85
2023-07-25T08:05:50.080Z,7.97
2023-07-25T08:08:18.510Z,10.65
2023-07-25T08:10:46.909Z,5.20
2023-07-25T08:13:15.367Z,7.53
2023-07-25T08:15:43.751Z,6.57
2023-07-25T08:18:12.180Z,11.25
2023-07-25T08:20:42.063Z,8.88
2023-07-25T08:23:10.489Z,6.38
2023-07-25T08:25:40.248Z,6.55
2023-07-25T08:28:08.664Z,7.45
2023-07-25T08:30:37.104Z,7.22
2023-07-25T08:33:05.677Z,9.63
2023-07-25T08:35:34.143Z,9.27
2023-07-25T08:38:04.082Z,11.82
2023-07-25T08:40:32.599Z,6.65
2023-07-25T08:43:06.193Z,11.57
2023-07-25T08:45:35.272Z,9.02
2023-07-25T08:48:06.458Z,8.90
2023-07-25T08:50:35.882Z,6.00
2023-07-25T08:53:10.523Z,6.82
2023-07-25T08:55:38.938Z,11.70
2023-07-25T08:58:07.455Z,7.28
2023-07-25T09:00:37.202Z,12.13
2023-07-25T09:03:05.959Z,9.95
2023-07-25T09:05:34.444Z,9.18
2023-07-25T09:08:02.889Z,9.00
2023-07-25T09:10:32.917Z,8.80
2023-07-25T09:13:01.411Z,8.57
2023-07-25T09:15:29.971Z,5.78
2023-07-25T09:17:58.517Z,6.63
2023-07-25T09:20:27.330Z,9.48
2023-07-25T09:22:57.341Z,9.00
2023-07-25T09:25:28.920Z,8.48
2023-07-25T09:27:58.708Z,7.38
2023-07-25T09:30:29.613Z,9.23
2023-07-25T09:32:58.087Z,5.65
2023-07-25T09:35:26.591Z,8.35
2023-07-25T09:37:56.037Z,6.20
2023-07-25T09:40:25.012Z,10.23
2023-07-25T09:42:53.518Z,8.65
2023-07-25T09:45:23.359Z,11.73
2023-07-25T09:47:54.910Z,8.90
2023-07-25T09:50:27.962Z,8.38
2023-07-25T09:52:56.445Z,9.13
2023-07-25T09:55:24.859Z,8.93
2023-07-25T09:57:53.674Z,7.97
2023-07-25T10:00:23.794Z,6.05
2023-07-25T10:02:52.665Z,10.65
2023-07-25T10:05:21.756Z,8.40
2023-07-25T10:07:51.481Z,7.18
2023-07-25T10:10:20.049Z,7.03
2023-07-25T10:12:48.347Z,5.38
2023-07-25T10:15:16.896Z,8.35
2023-07-25T10:17:47.815Z,8.20
2023-07-25T10:20:23.015Z,6.30
2023-07-25T10:22:51.736Z,5.97
2023-07-25T10:25:21.502Z,6.78
2023-07-25T10:27:54.771Z,9.55
2023-07-25T10:30:24.821Z,8.23
2023-07-25T10:32:58.065Z,8.05
2023-07-25T10:35:44.788Z,7.00
2023-07-25T10:38:14.716Z,7.32
2023-07-25T10:40:57.399Z,8.57
2023-07-25T10:43:29.456Z,7.93
2023-07-25T10:46:01.101Z,9.40
2023-07-25T10:48:35.640Z,4.88
2023-07-25T10:51:07.752Z,4.17
2023-07-25T10:53:36.832Z,9.98
2023-07-25T10:56:15.322Z,6.18
2023-07-25T10:59:06.534Z,5.13
2023-07-25T11:01:41.000Z,7.30
2023-07-25T11:04:28.512Z,6.80
2023-07-25T11:06:58.175Z,7.78
2023-07-25T11:09:28.252Z,6.30
2023-07-25T11:11:58.190Z,7.65
2023-07-25T11:14:26.388Z,8.88
2023-07-25T11:16:56.229Z,5.85
2023-07-25T11:19:29.824Z,5.45
2023-07-25T11:21:58.166Z,7.63
2023-07-25T11:24:26.539Z,4.63
2023-07-25T11:26:54.698Z,7.30
2023-07-25T11:29:24.096Z,4.45
2023-07-25T11:31:52.303Z,8.18
2023-07-25T11:34:21.643Z,4.80
2023-07-25T11:36:51.150Z,8.27
2023-07-25T11:39:20.200Z,6.85
2023-07-25T11:41:48.420Z,5.78
2023-07-25T11:44:18.364Z,4.68
2023-07-25T11:46:52.035Z,3.30
2023-07-25T11:49:36.386Z,8.73
2023-07-25T11:52:11.378Z,7.78
2023-07-25T11:54:39.857Z,6.72
2023-07-25T11:57:08.611Z,6.45
2023-07-25T11:59:41.739Z,4.50
2023-07-25T12:02:10.846Z,8.23
2023-07-25T12:04:45.114Z,8.25
2023-07-25T12:07:15.429Z,9.43
2023-07-25T12:09:51.231Z,5.32
2023-07-25T12:12:19.564Z,3.28
2023-07-25T12:15:03.119Z,3.95
2023-07-25T12:17:44.133Z,3.17
2023-07-25T12:20:19.487Z,5.28
2023-07-25T12:25:20.675Z,3.15
2023-07-25T12:27:50.470Z,3.63
2023-07-25T12:30:18.785Z,4.53
2023-07-25T12:32:47.228Z,2.53
2023-07-25T12:35:15.464Z,4.90
2023-07-25T12:37:43.626Z,5.82
2023-07-25T12:40:13.847Z,3.97
2023-07-25T12:42:41.953Z,3.97
2023-07-25T12:45:11.284Z,6.93
2023-07-25T12:47:39.895Z,2.97
2023-07-25T12:50:09.808Z,4.68
2023-07-25T12:52:38.259Z,4.57
2023-07-25T12:55:06.832Z,4.25
2023-07-25T12:57:36.643Z,4.07
2023-07-25T13:00:08.557Z,4.22
2023-07-25T13:02:37.842Z,2.85
2023-07-25T13:05:07.279Z,4.68
2023-07-25T13:07:36.354Z,4.82
2023-07-25T13:10:07.429Z,4.97
2023-07-25T13:12:37.062Z,2.10
2023-07-25T13:15:06.080Z,5.90
2023-07-25T13:17:35.043Z,4.05
2023-07-25T13:20:04.786Z,5.15
2023-07-25T13:22:32.962Z,2.78
2023-07-25T13:25:01.144Z,2.78
2023-07-25T13:27:29.463Z,3.67
2023-07-25T13:29:59.558Z,4.53
2023-07-25T13:32:27.931Z,5.28
2023-07-25T13:34:56.218Z,2.72
2023-07-25T13:37:24.365Z,4.50
2023-07-25T13:39:52.440Z,3.38
2023-07-25T13:42:23.527Z,4.45
2023-07-25T13:44:51.669Z,3.58
2023-07-25T13:47:21.158Z,4.63
2023-07-25T13:49:49.462Z,3.47
2023-07-25T13:52:17.562Z,4.90
2023-07-25T13:54:45.685Z,0.90
2023-07-25T13:57:13.837Z,4.35
2023-07-25T13:59:41.948Z,3.85
2023-07-25T14:02:10.754Z,2.63
2023-07-25T14:04:41.064Z,2.47
2023-07-25T14:07:09.737Z,4.35
2023-07-25T14:09:37.906Z,4.18
2023-07-25T14:12:07.058Z,3.30
2023-07-25T14:14:35.582Z,9.05
2023-07-25T14:17:04.526Z,3.47
2023-07-25T14:19:33.122Z,2.97
2023-07-25T14:22:02.969Z,3.75
2023-07-25T14:24:31.409Z,3.08
2023-07-25T14:26:59.584Z,6.18
2023-07-25T14:29:27.979Z,1.95
2023-07-25T14:31:56.133Z,2.60
2023-07-25T14:34:25.169Z,3.72
2023-07-25T14:36:53.980Z,1.42
2023-07-25T14:39:23.475Z,5.53
2023-07-25T14:41:51.632Z,2.58
2023-07-25T14:44:19.792Z,2.20
2023-07-25T14:46:48.023Z,4.82
2023-07-25T14:49:16.235Z,2.00
2023-07-25T14:51:44.498Z,2.45
2023-07-25T14:54:12.628Z,2.85
2023-07-25T14:56:42.151Z,3.50
2023-07-25T14:59:10.296Z,1.88
2023-07-25T15:01:38.547Z,5.70
2023-07-25T15:04:07.033Z,4.32
2023-07-25T15:06:35.308Z,3.92
2023-07-25T15:09:03.502Z,3.05
2023-07-25T15:11:32.073Z,4.03
2023-07-25T15:14:01.653Z,5.93
2023-07-25T15:16:30.827Z,4.60
2023-07-25T15:18:59.181Z,1.80
2023-07-25T15:21:28.194Z,2.92
2023-07-25T15:23:56.293Z,2.55
2023-07-25T15:26:24.468Z,2.38
2023-07-25T15:28:52.680Z,5.43
2023-07-25T15:31:22.447Z,2.58
2023-07-25T15:33:51.018Z,1.98
2023-07-25T15:36:19.217Z,2.17
2023-07-25T15:38:47.533Z,5.55
2023-07-25T15:41:15.673Z,2.70
2023-07-25T15:43:43.803Z,1.05
2023-07-25T15:46:11.933Z,4.28
2023-07-25T15:48:41.462Z,2.97
2023-07-25T15:51:09.657Z,3.53
2023-07-25T15:53:37.806Z,3.00
2023-07-25T15:56:06.234Z,1.65
2023-07-25T15:58:34.321Z,3.05
2023-07-25T16:01:02.859Z,2.60
2023-07-25T16:03:31.097Z,2.63
2023-07-25T16:06:00.673Z,4.03
2023-07-25T16:08:28.767Z,3.28
2023-07-25T16:10:57.227Z,3.75
2023-07-25T16:13:25.422Z,3.13
2023-07-25T16:15:53.574Z,2.67
2023-07-25T16:18:21.840Z,4.97
2023-07-25T16:20:51.358Z,3.65
2023-07-25T16:23:21.063Z,6.18
2023-07-25T16:25:49.270Z,2.17
2023-07-25T16:28:17.440Z,1.90
2023-07-25T16:30:45.639Z,1.75
2023-07-25T16:33:13.746Z,1.38
2023-07-25T16:35:42.572Z,1.17
2023-07-25T16:38:11.018Z,4.63
2023-07-25T16:40:40.497Z,2.85
2023-07-25T16:43:08.775Z,1.33
2023-07-25T16:45:36.887Z,1.90
2023-07-25T16:48:05.453Z,1.77
2023-07-25T16:50:33.763Z,3.63
2023-07-25T16:53:02.240Z,2.50
2023-07-25T16:55:30.464Z,2.50
2023-07-25T16:57:59.945Z,4.13
2023-07-25T17:00:28.652Z,3.97
2023-07-25T17:02:56.856Z,3.00
2023-07-25T17:05:27.624Z,3.45
2023-07-25T17:07:57.713Z,3.17
2023-07-25T17:10:25.964Z,3.75
2023-07-25T17:12:54.289Z,1.88
2023-07-25T17:15:23.776Z,1.55
2023-07-25T17:17:52.231Z,2.40
2023-07-25T17:20:23.115Z,4.68
2023-07-25T17:22:51.784Z,2.08
2023-07-25T17:25:20.561Z,2.58
2023-07-25T17:27:48.680Z,2.83
2023-07-25T17:30:17.297Z,2.38
2023-07-25T17:32:46.939Z,1.45
2023-07-25T17:35:23.991Z,2.85
2023-07-25T17:38:00.042Z,2.67
2023-07-25T17:40:28.203Z,3.80
2023-07-25T17:42:56.328Z,3.25
2023-07-25T17:45:24.733Z,1.17
2023-07-25T17:47:54.503Z,1.75
2023-07-25T17:50:22.990Z,1.45
2023-07-25T17:52:51.411Z,2.47
2023-07-25T17:55:19.653Z,2.30
2023-07-25T17:57:47.722Z,3.15
2023-07-25T18:00:16.199Z,1.85
2023-07-25T18:02:44.415Z,1.60
2023-07-25T18:05:14.068Z,2.78
2023-07-25T18:07:42.200Z,1.85
2023-07-25T18:10:10.792Z,2.42
2023-07-25T18:12:38.934Z,2.55
2023-07-25T18:15:08.053Z,2.80
2023-07-25T18:17:36.244Z,1.85
2023-07-25T18:20:04.723Z,2.15
2023-07-25T18:22:34.235Z,1.50
2023-07-25T18:25:02.504Z,3.22
2023-07-25T18:27:30.788Z,1.48
2023-07-25T18:29:58.914Z,2.25
2023-07-25T18:32:27.152Z,2.30
2023-07-25T18:34:55.354Z,1.35
2023-07-25T18:37:23.499Z,2.22
2023-07-25T18:39:53.047Z,2.55
2023-07-25T18:42:21.161Z,2.92
2023-07-25T18:44:49.422Z,1.92
2023-07-25T18:47:33.740Z,1.30
2023-07-25T18:50:03.173Z,1.50
2023-07-25T18:52:31.384Z,1.67
2023-07-25T18:55:00.867Z,3.22
2023-07-25T18:57:29.009Z,2.40
2023-07-25T18:59:57.647Z,3.78
2023-07-25T19:02:25.967Z,1.10
2023-07-25T19:04:54.108Z,2.67
2023-07-25T19:07:22.277Z,2.05
2023-07-25T19:09:50.632Z,3.85
2023-07-25T19:12:20.208Z,4.32
2023-07-25T19:14:48.329Z,4.70
2023-07-25T19:17:16.486Z,1.60
2023-07-25T19:19:44.607Z,2.20
2023-07-25T19:22:13.108Z,1.92
2023-07-25T19:24:41.300Z,2.30
2023-07-25T19:27:09.647Z,5.38
2023-07-25T19:29:39.129Z,2.50
2023-07-25T19:32:08.418Z,9.70
2023-07-25T19:34:37.319Z,1.83
2023-07-25T19:37:05.891Z,2.28
2023-07-25T19:39:34.580Z,4.07
2023-07-25T19:42:02.777Z,3.65
2023-07-25T19:44:33.004Z,1.02
2023-07-25T19:47:04.644Z,6.18
2023-07-25T19:49:34.021Z,2.92
2023-07-25T19:52:02.120Z,3.83
2023-07-25T19:54:30.621Z,2.47
2023-07-25T19:56:59.156Z,2.05
2023-07-25T19:59:27.559Z,2.92
2023-07-25T20:01:56.019Z,1.98
2023-07-25T20:04:25.857Z,2.13
2023-07-25T20:06:54.016Z,3.83
2023-07-25T20:09:22.171Z,2.88
2023-07-25T20:11:50.309Z,3.05
2023-07-25T20:14:18.516Z,8.10
2023-07-25T20:16:46.713Z,1.90
2023-07-25T20:19:15.205Z,3.97
2023-07-25T20:21:48.190Z,4.28
2023-07-25T20:24:16.724Z,2.47
2023-07-25T20:26:45.179Z,2.85
2023-07-25T20:29:13.564Z,2.25
2023-07-25T20:31:41.972Z,4.80
2023-07-25T20:34:10.404Z,3.30
2023-07-25T20:36:38.979Z,3.05
2023-07-25T20:39:08.736Z,4.47
2023-07-25T20:41:37.190Z,2.35
2023-07-25T20:44:05.611Z,4.82
2023-07-25T20:46:34.145Z,2.17
2023-07-25T20:49:04.062Z,3.03
2023-07-25T20:51:32.184Z,1.83
2023-07-25T20:54:00.356Z,4.32
2023-07-25T20:56:30.309Z,2.78
2023-07-25T20:58:58.678Z,2.85
2023-07-25T21:01:27.131Z,3.13
2023-07-25T21:03:55.621Z,5.43
2023-07-25T21:06:25.866Z,2.22
2023-07-25T21:08:54.255Z,3.15
2023-07-25T21:11:22.661Z,4.55
2023-07-25T21:13:52.399Z,4.05
2023-07-25T21:16:20.574Z,3.08
2023-07-25T21:18:48.994Z,2.38
2023-07-25T21:21:17.428Z,4.63
2023-07-25T21:23:45.550Z,1.83
2023-07-25T21:26:13.783Z,1.55
2023-07-25T21:28:41.920Z,3.92
2023-07-25T21:31:12.183Z,1.80
2023-07-25T21:33:40.376Z,1.88
2023-07-25T21:36:10.481Z,2.67
2023-07-25T21:38:38.938Z,4.22
2023-07-25T21:41:08.738Z,3.65
2023-07-25T21:43:36.896Z,2.85
2023-07-25T21:46:05.040Z,2.08
2023-07-25T21:48:34.558Z,2.65
2023-07-25T21:51:02.837Z,2.55
2023-07-25T21:53:31.706Z,3.90
2023-07-25T21:56:00.549Z,3.03
2023-07-25T21:58:29.561Z,1.65
2023-07-25T22:00:58.789Z,3.92
2023-07-25T22:03:29.074Z,4.60
2023-07-25T22:06:00.049Z,2.08
2023-07-25T22:08:28.203Z,3.88
2023-07-25T22:10:56.825Z,5.25
2023-07-25T22:13:25.813Z,7.97
2023-07-25T22:15:54.282Z,1.92
2023-07-25T22:18:22.428Z,3.10
2023-07-25T22:20:52.821Z,4.47
2023-07-25T22:23:23.051Z,4.97
2023-07-25T22:25:51.439Z,2.95
2023-07-25T22:28:19.824Z,4.80
2023-07-25T22:30:48.262Z,1.65
2023-07-25T22:33:16.683Z,4.07
2023-07-25T22:35:45.130Z,2.25
2023-07-25T22:38:13.753Z,2.88
2023-07-25T22:40:44.010Z,6.43
2023-07-25T22:43:12.421Z,6.00
2023-07-25T22:45:40.729Z,4.13
2023-07-25T22:48:09.170Z,2.65
2023-07-25T22:50:37.579Z,4.13
2023-07-25T22:53:05.980Z,4.60
2023-07-25T22:55:34.752Z,2.13
2023-07-25T22:58:04.479Z,3.17
2023-07-25T23:00:32.563Z,2.00
2023-07-25T23:03:01.006Z,6.03
2023-07-25T23:05:29.173Z,2.22
2023-07-25T23:07:57.592Z,4.85
2023-07-25T23:10:25.944Z,2.65
2023-07-25T23:12:56.547Z,3.30
2023-07-25T23:15:26.378Z,3.17
2023-07-25T23:17:54.808Z,3.05
2023-07-25T23:20:23.188Z,2.80
2023-07-25T23:22:51.590Z,4.88
2023-07-25T23:25:20.068Z,4.40
2023-07-25T23:27:48.485Z,3.63
2023-07-25T23:30:16.944Z,4.30
2023-07-25T23:32:46.764Z,4.47
2023-07-25T23:35:14.947Z,3.22
2023-07-25T23:37:43.055Z,4.60
2023-07-25T23:40:13.077Z,4.35
2023-07-25T23:42:41.173Z,4.68
2023-07-25T23:45:10.091Z,6.40
2023-07-25T23:47:38.252Z,3.65
2023-07-25T23:50:08.546Z,2.83
2023-07-25T23:52:36.908Z,3.88
2023-07-25T23:55:05.477Z,3.03
2023-07-25T23:57:33.599Z,4.93
